Hedley, Canada
Current Conditions -  °F | °C
As of 8:00 AM on Friday 31 Oct 2014 (Local Time) from CYDC Reporting Station
Light Fog Light Fog  
Wind Chill: 43°   Ceiling: 4000
Heat Index: 43°   Visibility: 10mi
Dew Point: 43°   Wind: 2mph
Humidity: 100%   Direction: 50°NE
Pressure: 29.7"   Gusts: NA
Location:  49.35°N, 120.08°W
Report Text: CYDC 311500Z 05002KT 10SM BCFG FEW001 FEW005 BKN040 06/06 A2970 RMK ST1ST1SC6 ST TR VIS E 1 SLP062
Loading
Personal Weather Stations






























Interactive Weather Map
Tropical Storm Tracking
New forecast layout! Learn more

10-Day Weather Forecast

Advertisements
Track Severe Weather on mobile